AirNav   Duncan Aviation - Near you to keep you flying
 
 586 users online  

07IN Gray Airport
Boggstown, Indiana, USA

GOING TO BOGGSTOWN?


FAA INFORMATION EFFECTIVE 26 JANUARY 2023

Location

FAA Identifier: 07IN
Lat/Long: 39-34-25.1720N 085-54-49.9340W
39-34.419533N 085-54.832233W
39.5736589,-85.9138706
(estimated)
Elevation: 750 ft. / 229 m (estimated)
Variation: 02W (1985)
From city: 1 mile N of BOGGSTOWN, IN
Time zone: UTC -5 (UTC -4 during Daylight Saving Time)
Zip code: 46126

Airport Operations

Airport use: Private use. Permission required prior to landing
Control tower: no
ARTCC: INDIANAPOLIS CENTER
FSS: TERRE HAUTE FLIGHT SERVICE STATION
Attendance: UNATNDD
Wind indicator: yes
Segmented circle: no

Airport Communications

WX ASOS at GEZ (5 nm E): 121.55 (317-398-0246)
WX AWOS-3P at HFY (9 nm W): 118.525 (317-882-5862)
WX AWOS-3 at HBE (15 nm S): 119.675 (812-526-1745)
WX AWOS-3 at 8A4 (16 nm NW): 135.525 (317-955-3160)
WX AWOS-3 at MQJ (16 nm N): 124.175 (317-335-3037)
WX AWOS-3 at BAK (19 nm S): 119.75 (812-376-7584)
WX ASOS at IND (20 nm NW): PHONE 317-241-0348

Nearby radio navigation aids

VOR radial/distance  VOR name  Freq  Var
SHBr229/5.4SHELBYVILLE VOR/DME116.1501E
VHPr124/25.5BRICKYARD VORTAC116.3001E

 
NDB name  Hdg/Dist  Freq  Var  ID
METROPOLITAN167/22.733803WUMP ..- -- .--.
NEW CASTLE242/33.038506WUWL ..- .-- .-..
BATESVILLE299/33.325405WHLB .... .-.. -...

Airport Services

Airframe service: NONE
Powerplant service: NONE

Runway Information

Runway N/S

Dimensions: 1860 x 80 ft. / 567 x 24 m
Surface: turf
RUNWAY N  RUNWAY S
Traffic pattern: leftleft

Airport Ownership and Management from official FAA records

Ownership: Privately-owned
Owner: TERRY & REBECCA BAKER
P.O. BOX 322
FAIRLAND, IN 46126-0322
Phone 317-696-0697
Manager: TERRY & REBECCA BAKER
P.O. BOX 322
FAIRLAND, IN 46126-0322
Phone 317-696-0697

Airport Operational Statistics

Aircraft based on the field: 1
Single engine airplanes: 1
    

Additional Remarks

HOUSE E OF LNDG AREA.
FOR CD CTC INDIANAPOLIS APCH AT 317-227-5743.

Instrument Procedures

There are no published instrument procedures at 07IN.

Some nearby airports with instrument procedures:

KGEZ - Shelbyville Municipal Airport (5 nm E)
KHFY - Indy South Greenwood Airport (9 nm W)
8A4 - Indianapolis Downtown Heliport (16 nm NW)
KMQJ - Indianapolis Regional Airport (16 nm N)
KBAK - Columbus Municipal Airport (19 nm S)
KIND - Indianapolis International Airport (20 nm NW)
 
Loc | Ops | Rwys | IFR | FBO | Links
Com | Nav | Svcs | Stats | Notes
Area around 07IN (Gray Airport)
 
Road maps at: MapQuest Bing Google
 
Aerial photo
No photo
 
Sectional chart

 
Airport distance calculator
Flying to Gray Airport? Find the distance to fly.

From to 07IN

Sunrise and sunset
Times for 05-Feb-2023
 Local
(UTC-5)
 Zulu
(UTC)
Morning civil twilight07:2012:20
Sunrise07:4812:48
Sunset18:0723:07
Evening civil twilight18:3523:35

Current date and time
Zulu (UTC)  05-Feb-2023 07:44:18
Local (UTC-5)  05-Feb-2023 02:44:18
 
METAR
KGEZ 
5nm E 
050653Z AUTO 19009KT 10SM CLR 04/M03 A3009 RMK AO2 SLP193 T00391033
KHFY 
9nm W 
050735Z AUTO 21006KT 10SM CLR 04/M03 A3010 RMK AO2 T00421033
KMQJ 
16nm N 
050735Z AUTO 19007KT 10SM CLR 02/M04 A3008 RMK AO1
KBAK 
18nm S 
050147Z 22012KT 10SM FEW200 04/M08 A3019
KIND 
19nm NW 
050654Z 22012KT 10SM BKN250 04/M06 A3008 RMK AO2 SLP189 T00441056
TAF
KIND 
19nm NW 
050520Z 0506/0612 20016G27KT P6SM BKN210 WS020/23050KT FM051700 23015G23KT P6SM OVC020 FM052000 24014KT P6SM BKN020 FM052300 25011KT P6SM BKN070 FM060700 34006KT P6SM BKN020
NOTAMs
Click for the latest NOTAMs
NOTAMs are issued by the DoD/FAA and will open in a separate window not controlled by AirNav.

 

 
 

Would you like to see your business listed on this page?

 If your business provides an interesting product or service to pilots, flight crews, aircraft, or users of the Gray Airport, you should consider listing it here.  To start the listing process, click on the button below
 
Add a business
 

Other Pages about Gray Airport

Update a link
 
Copyright © AirNav, LLC. All rights reserved. Privacy Policy  Contact